Time;durP1;ratioP1;P1;durP2;ratioP2;P2;SDS_P1;SDS_P2;PMS_P1;PMS_P2;Temp;Humidity;BMP_temperature;BMP_pressure;BME280_temperature;BME280_humidity;BME280_pressure;Samples;Min_cycle;Max_cycle;Signal;HPM_P1;HPM_P2
2023/03/16 00:01:06;;;;;;;9.60;2.70;;;;;;;;;;5048158;28;20045;-60
2023/03/16 00:03:33;;;;;;;5.50;2.63;;;;;;;;;;5037995;28;20055;-60
2023/03/16 00:05:59;;;;;;;9.73;2.40;;;;;;;;;;5039757;28;20056;-60
2023/03/16 00:08:25;;;;;;;5.77;2.47;;;;;;;;;;5043088;28;20037;-60
2023/03/16 00:10:52;;;;;;;6.40;2.27;;;;;;;;;;5044587;28;20053;-59
2023/03/16 00:13:22;;;;;;;12.20;3.33;;;;;;;;;;5050692;28;20047;-60
2023/03/16 00:15:52;;;;;;;7.53;2.37;;;;;;;;;;5051133;28;20047;-60
2023/03/16 00:18:18;;;;;;;10.07;2.43;;;;;;;;;;5050801;28;20120;-60
2023/03/16 00:20:44;;;;;;;6.73;2.47;;;;;;;;;;5051301;28;20037;-60
2023/03/16 00:23:10;;;;;;;7.33;2.40;;;;;;;;;;5050926;28;20045;-60
2023/03/16 00:25:36;;;;;;;7.57;2.40;;;;;;;;;;5050652;28;20511;-60
2023/03/16 00:28:02;;;;;;;10.87;2.70;;;;;;;;;;5051155;28;20056;-60
2023/03/16 00:30:31;;;;;;;11.37;3.20;;;;;;;;;;5050314;28;20165;-60
2023/03/16 00:32:57;;;;;;;11.17;2.67;;;;;;;;;;5050162;28;20084;-60
2023/03/16 00:35:24;;;;;;;8.53;3.07;;;;;;;;;;5050635;28;20566;-60
2023/03/16 00:37:50;;;;;;;13.97;2.73;;;;;;;;;;5049441;28;20120;-60
2023/03/16 00:40:16;;;;;;;5.90;2.90;;;;;;;;;;5049557;28;20080;-60
2023/03/16 00:42:42;;;;;;;8.00;3.07;;;;;;;;;;5050391;28;20080;-60
2023/03/16 00:45:09;;;;;;;6.73;2.73;;;;;;;;;;5050409;28;20053;-60
2023/03/16 00:47:35;;;;;;;9.63;3.23;;;;;;;;;;5050587;28;20045;-60
2023/03/16 00:50:01;;;;;;;7.97;3.07;;;;;;;;;;5050563;28;20068;-60
2023/03/16 00:52:28;;;;;;;9.17;3.47;;;;;;;;;;5049854;28;20164;-60
2023/03/16 00:54:55;;;;;;;10.07;3.07;;;;;;;;;;5049583;28;20044;-60
2023/03/16 00:57:23;;;;;;;9.40;3.17;;;;;;;;;;5050280;28;20048;-60
2023/03/16 00:59:49;;;;;;;6.80;3.07;;;;;;;;;;5049609;28;20102;-60
2023/03/16 01:02:18;;;;;;;12.40;4.57;;;;;;;;;;5049845;28;20055;-61
2023/03/16 01:04:44;;;;;;;8.93;3.23;;;;;;;;;;5050021;28;20482;-60
2023/03/16 01:07:11;;;;;;;7.40;3.40;;;;;;;;;;5049370;28;20056;-60
2023/03/16 01:09:38;;;;;;;7.03;3.10;;;;;;;;;;5049092;28;20498;-60
2023/03/16 01:12:05;;;;;;;6.70;2.83;;;;;;;;;;5049778;28;20406;-60
2023/03/16 01:14:31;;;;;;;9.77;3.70;;;;;;;;;;5049567;28;20077;-60
2023/03/16 01:16:57;;;;;;;5.80;3.23;;;;;;;;;;5049586;28;20095;-60
2023/03/16 01:19:23;;;;;;;7.67;2.80;;;;;;;;;;5049717;28;20048;-60
2023/03/16 01:21:49;;;;;;;10.53;3.63;;;;;;;;;;5050030;28;20037;-60
2023/03/16 01:24:15;;;;;;;9.80;3.63;;;;;;;;;;5049730;28;20115;-60
2023/03/16 01:26:41;;;;;;;11.07;3.83;;;;;;;;;;5048601;28;20053;-60
2023/03/16 01:29:07;;;;;;;11.43;4.00;;;;;;;;;;5048834;28;20103;-60
2023/03/16 01:31:33;;;;;;;6.57;3.20;;;;;;;;;;5049729;28;20128;-60
2023/03/16 01:34:01;;;;;;;13.60;3.50;;;;;;;;;;5049964;28;20044;-60
2023/03/16 01:36:27;;;;;;;9.03;3.30;;;;;;;;;;5047826;28;20048;-60
2023/03/16 01:38:53;;;;;;;9.07;3.43;;;;;;;;;;5049530;28;20414;-60
2023/03/16 01:41:19;;;;;;;8.43;3.50;;;;;;;;;;5049378;28;20037;-59
2023/03/16 01:43:46;;;;;;;11.47;3.80;;;;;;;;;;5049587;28;20045;-60
2023/03/16 01:46:20;;;;;;;8.37;3.93;;;;;;;;;;5049353;28;20048;-60
2023/03/16 01:48:58;;;;;;;10.73;3.90;;;;;;;;;;5049329;28;20136;-60
2023/03/16 01:51:33;;;;;;;8.10;4.03;;;;;;;;;;5048840;28;20049;-59
2023/03/16 01:54:03;;;;;;;9.87;3.83;;;;;;;;;;5049280;28;20041;-59
2023/03/16 01:56:33;;;;;;;11.47;4.30;;;;;;;;;;5049253;28;20495;-60
2023/03/16 01:59:01;;;;;;;8.53;3.40;;;;;;;;;;5049362;28;20048;-60
2023/03/16 02:01:27;;;;;;;8.87;3.60;;;;;;;;;;5049082;28;20080;-60
2023/03/16 02:04:04;;;;;;;7.53;3.77;;;;;;;;;;5049096;28;20090;-60
2023/03/16 02:06:31;;;;;;;6.13;3.27;;;;;;;;;;5046906;28;20056;-60
2023/03/16 02:08:57;;;;;;;9.03;4.03;;;;;;;;;;5029221;28;20100;-60
2023/03/16 02:11:23;;;;;;;8.17;4.43;;;;;;;;;;5028772;28;20052;-60
2023/03/16 02:13:49;;;;;;;13.40;4.50;;;;;;;;;;5029355;28;20038;-61
2023/03/16 02:16:18;;;;;;;8.10;4.70;;;;;;;;;;5028773;28;20539;-60
2023/03/16 02:18:47;;;;;;;9.23;4.00;;;;;;;;;;5028631;28;20081;-60
2023/03/16 02:21:32;;;;;;;9.10;3.87;;;;;;;;;;5029337;28;20041;-60
2023/03/16 02:24:01;;;;;;;12.00;4.10;;;;;;;;;;5029445;28;20076;-60
2023/03/16 02:26:34;;;;;;;9.53;4.13;;;;;;;;;;5029054;28;20144;-60
2023/03/16 02:29:05;;;;;;;8.63;3.73;;;;;;;;;;5042283;28;20060;-59
2023/03/16 02:31:33;;;;;;;10.90;4.80;;;;;;;;;;5048068;28;20037;-59
2023/03/16 02:33:59;;;;;;;8.70;3.70;;;;;;;;;;5048020;28;20053;-59
2023/03/16 02:36:25;;;;;;;8.20;4.00;;;;;;;;;;5047407;28;20380;-59
2023/03/16 02:38:51;;;;;;;9.37;3.90;;;;;;;;;;5047028;28;20041;-59
2023/03/16 02:41:18;;;;;;;10.27;3.73;;;;;;;;;;5048269;28;20503;-59
2023/03/16 02:43:53;;;;;;;14.20;4.20;;;;;;;;;;5048081;28;20098;-59
2023/03/16 02:46:20;;;;;;;9.20;4.47;;;;;;;;;;5048363;28;20048;-59
2023/03/16 02:49:05;;;;;;;11.20;3.90;;;;;;;;;;5047658;28;20041;-59
2023/03/16 02:51:31;;;;;;;9.87;4.13;;;;;;;;;;5048567;28;20033;-59
2023/03/16 02:53:57;;;;;;;9.47;4.07;;;;;;;;;;5048542;28;20037;-59
2023/03/16 02:56:23;;;;;;;7.97;4.03;;;;;;;;;;5048394;28;20045;-59
2023/03/16 02:58:49;;;;;;;14.40;6.07;;;;;;;;;;5048824;28;20041;-59
2023/03/16 03:01:15;;;;;;;8.43;3.97;;;;;;;;;;5048566;28;20049;-59
2023/03/16 03:03:42;;;;;;;10.00;5.30;;;;;;;;;;5048756;28;20045;-59
2023/03/16 03:06:08;;;;;;;10.37;4.37;;;;;;;;;;5048065;28;20052;-59
2023/03/16 03:08:34;;;;;;;9.67;4.77;;;;;;;;;;5047713;28;20094;-59
2023/03/16 03:11:00;;;;;;;11.90;4.97;;;;;;;;;;5048448;28;20051;-59
2023/03/16 03:13:26;;;;;;;8.60;4.20;;;;;;;;;;5048237;28;20057;-59
2023/03/16 03:15:52;;;;;;;10.87;4.00;;;;;;;;;;5048005;28;20041;-59
2023/03/16 03:18:18;;;;;;;9.27;4.47;;;;;;;;;;5048213;28;20533;-59
2023/03/16 03:20:44;;;;;;;11.13;4.47;;;;;;;;;;5048007;28;20507;-59
2023/03/16 03:23:10;;;;;;;10.37;4.27;;;;;;;;;;5048098;28;20095;-59
2023/03/16 03:25:36;;;;;;;12.00;4.10;;;;;;;;;;5047550;28;20783;-59
2023/03/16 03:28:04;;;;;;;8.33;4.67;;;;;;;;;;5048538;28;20041;-59
2023/03/16 03:30:31;;;;;;;10.70;4.33;;;;;;;;;;5050875;28;20135;-60
2023/03/16 03:32:57;;;;;;;5.93;3.43;;;;;;;;;;5051916;28;20053;-60
2023/03/16 03:35:23;;;;;;;9.73;4.07;;;;;;;;;;5052193;28;20041;-60
2023/03/16 03:37:49;;;;;;;7.67;4.37;;;;;;;;;;5051431;28;20105;-60
2023/03/16 03:40:16;;;;;;;8.87;4.30;;;;;;;;;;5051601;28;20049;-60
2023/03/16 03:42:42;;;;;;;9.17;4.60;;;;;;;;;;5051043;28;20041;-60
2023/03/16 03:45:11;;;;;;;8.33;4.07;;;;;;;;;;5051449;28;20045;-60
2023/03/16 03:47:37;;;;;;;6.97;3.87;;;;;;;;;;5051792;28;20041;-60
2023/03/16 03:50:03;;;;;;;9.27;3.67;;;;;;;;;;5051718;28;20041;-60
2023/03/16 03:52:29;;;;;;;6.83;3.63;;;;;;;;;;5051080;28;20068;-60
2023/03/16 03:54:55;;;;;;;9.97;4.00;;;;;;;;;;5051796;28;20587;-60
2023/03/16 03:57:21;;;;;;;10.30;3.53;;;;;;;;;;5051551;28;20080;-60
2023/03/16 03:59:47;;;;;;;5.77;3.23;;;;;;;;;;5051397;28;20075;-60
2023/03/16 04:02:13;;;;;;;6.90;3.57;;;;;;;;;;5049650;28;20048;-60
2023/03/16 04:04:40;;;;;;;8.77;3.50;;;;;;;;;;5051518;28;20083;-60
2023/03/16 04:07:06;;;;;;;5.57;3.23;;;;;;;;;;5051241;28;20048;-60
2023/03/16 04:09:32;;;;;;;8.83;4.00;;;;;;;;;;5051265;28;20048;-60
2023/03/16 04:11:59;;;;;;;6.20;3.63;;;;;;;;;;5051235;28;20078;-60
2023/03/16 04:14:25;;;;;;;9.77;3.80;;;;;;;;;;5050103;28;20048;-60
2023/03/16 04:16:51;;;;;;;7.20;3.40;;;;;;;;;;5050820;28;20041;-60
2023/03/16 04:19:17;;;;;;;7.00;3.23;;;;;;;;;;5050244;28;20403;-60
2023/03/16 04:21:43;;;;;;;9.33;3.77;;;;;;;;;;5051201;28;20106;-60
2023/03/16 04:24:09;;;;;;;10.07;4.47;;;;;;;;;;5050979;28;20044;-60
2023/03/16 04:26:35;;;;;;;6.67;3.10;;;;;;;;;;5050768;28;20095;-60
2023/03/16 04:29:02;;;;;;;7.80;3.73;;;;;;;;;;5050980;28;20523;-60
2023/03/16 04:31:28;;;;;;;9.10;3.83;;;;;;;;;;5050741;28;20109;-60
2023/03/16 04:33:54;;;;;;;7.47;3.10;;;;;;;;;;5050884;28;20136;-60
2023/03/16 04:36:23;;;;;;;8.17;3.67;;;;;;;;;;5049742;28;20040;-60
2023/03/16 04:38:50;;;;;;;8.40;3.57;;;;;;;;;;5050033;28;20056;-60
2023/03/16 04:41:16;;;;;;;8.43;3.13;;;;;;;;;;5049109;28;20049;-60
2023/03/16 04:43:42;;;;;;;10.33;3.73;;;;;;;;;;5049405;28;20041;-60
2023/03/16 04:46:09;;;;;;;6.67;3.20;;;;;;;;;;5048621;28;20059;-60
2023/03/16 04:48:35;;;;;;;8.17;3.53;;;;;;;;;;5038424;28;20045;-60
2023/03/16 04:51:02;;;;;;;6.77;4.00;;;;;;;;;;5040684;28;20037;-60
2023/03/16 04:53:28;;;;;;;6.53;3.60;;;;;;;;;;5040509;28;20048;-60
2023/03/16 04:55:54;;;;;;;12.70;3.80;;;;;;;;;;5044514;28;20045;-60
2023/03/16 04:58:21;;;;;;;6.83;3.37;;;;;;;;;;5040702;28;20067;-60
2023/03/16 05:00:47;;;;;;;8.23;4.23;;;;;;;;;;5042165;28;20511;-61
2023/03/16 05:03:13;;;;;;;10.60;3.93;;;;;;;;;;5047296;28;20426;-60
2023/03/16 05:05:41;;;;;;;7.63;3.23;;;;;;;;;;5038324;28;20039;-60
2023/03/16 05:08:07;;;;;;;9.10;3.77;;;;;;;;;;5041986;28;20047;-60
2023/03/16 05:10:33;;;;;;;9.27;4.77;;;;;;;;;;5042317;28;20032;-60
2023/03/16 05:13:00;;;;;;;11.70;3.70;;;;;;;;;;5038427;28;20045;-60
2023/03/16 05:15:26;;;;;;;9.47;3.93;;;;;;;;;;5048654;28;20033;-60
2023/03/16 05:17:54;;;;;;;11.47;4.57;;;;;;;;;;5049692;28;20080;-60
2023/03/16 05:20:20;;;;;;;8.80;3.53;;;;;;;;;;5049102;28;20060;-60
2023/03/16 05:22:47;;;;;;;8.20;3.60;;;;;;;;;;5049532;28;20045;-60
2023/03/16 05:25:13;;;;;;;9.73;3.80;;;;;;;;;;5049227;28;20076;-60
2023/03/16 05:27:47;;;;;;;7.40;3.53;;;;;;;;;;5049538;28;20057;-60
2023/03/16 05:30:17;;;;;;;8.97;4.07;;;;;;;;;;5040702;28;20129;-61
2023/03/16 05:32:43;;;;;;;8.23;4.30;;;;;;;;;;5038317;28;20071;-60
2023/03/16 05:35:13;;;;;;;8.80;4.13;;;;;;;;;;5042584;28;20037;-61
2023/03/16 05:37:40;;;;;;;8.70;4.30;;;;;;;;;;5046417;28;20392;-61
2023/03/16 05:40:12;;;;;;;11.67;4.00;;;;;;;;;;5048948;28;20128;-60
2023/03/16 05:42:38;;;;;;;11.52;3.85;;;;;;;;;;5038715;28;20041;-60
2023/03/16 05:45:05;;;;;;;9.27;3.90;;;;;;;;;;5038889;28;20055;-60
2023/03/16 05:47:31;;;;;;;5.97;3.77;;;;;;;;;;5039162;28;20054;-60
2023/03/16 05:49:57;;;;;;;9.97;4.03;;;;;;;;;;5039399;28;20045;-60
2023/03/16 05:52:24;;;;;;;7.43;4.13;;;;;;;;;;5039682;28;20045;-60
2023/03/16 05:54:50;;;;;;;13.03;4.47;;;;;;;;;;5037341;28;20060;-60
2023/03/16 05:57:16;;;;;;;7.83;3.90;;;;;;;;;;5037908;28;20808;-60
2023/03/16 05:59:42;;;;;;;8.17;4.30;;;;;;;;;;5037958;28;20043;-60
2023/03/16 06:02:09;;;;;;;6.70;3.73;;;;;;;;;;5039109;28;20530;-60
2023/03/16 06:04:35;;;;;;;11.37;4.30;;;;;;;;;;5039886;28;20136;-60
2023/03/16 06:07:01;;;;;;;7.90;3.83;;;;;;;;;;5036979;28;20045;-60
2023/03/16 06:09:27;;;;;;;8.03;4.40;;;;;;;;;;5038726;28;20049;-60
2023/03/16 06:11:53;;;;;;;9.60;4.50;;;;;;;;;;5037347;28;20043;-60
2023/03/16 06:14:20;;;;;;;7.33;4.47;;;;;;;;;;5036913;28;20123;-60
2023/03/16 06:16:46;;;;;;;7.67;4.30;;;;;;;;;;5039998;28;20052;-60
2023/03/16 06:19:12;;;;;;;9.37;3.67;;;;;;;;;;5038063;28;20033;-60
2023/03/16 06:21:38;;;;;;;9.00;4.27;;;;;;;;;;5036319;28;20037;-60
2023/03/16 06:24:06;;;;;;;5.40;3.57;;;;;;;;;;5036818;28;20553;-60
2023/03/16 06:26:32;;;;;;;7.67;4.23;;;;;;;;;;5043529;28;20114;-60
2023/03/16 06:28:58;;;;;;;8.07;4.40;;;;;;;;;;5038076;28;20053;-60
2023/03/16 06:31:24;;;;;;;9.97;3.90;;;;;;;;;;5040283;28;20064;-60
2023/03/16 06:33:50;;;;;;;10.30;4.10;;;;;;;;;;5038778;28;20052;-60
2023/03/16 06:36:16;;;;;;;7.50;3.47;;;;;;;;;;5039556;28;20038;-60
2023/03/16 06:38:42;;;;;;;6.70;3.73;;;;;;;;;;5036557;28;20064;-60
2023/03/16 06:41:08;;;;;;;9.83;3.70;;;;;;;;;;5039100;28;20041;-60
2023/03/16 06:43:34;;;;;;;7.00;4.03;;;;;;;;;;5041551;28;20471;-60
2023/03/16 06:46:00;;;;;;;7.70;4.03;;;;;;;;;;5040955;28;20117;-60
2023/03/16 06:48:26;;;;;;;6.17;3.40;;;;;;;;;;5037130;28;20038;-60
2023/03/16 06:50:52;;;;;;;7.20;3.30;;;;;;;;;;5032608;28;20104;-60
2023/03/16 06:53:18;;;;;;;8.13;4.37;;;;;;;;;;5040943;28;20040;-60
2023/03/16 06:55:44;;;;;;;7.77;4.20;;;;;;;;;;5035211;28;20069;-61
2023/03/16 06:58:10;;;;;;;7.20;3.57;;;;;;;;;;5029513;28;20491;-61
2023/03/16 07:00:36;;;;;;;6.30;4.03;;;;;;;;;;5040143;28;20044;-61
2023/03/16 07:03:03;;;;;;;6.47;3.87;;;;;;;;;;5041084;28;20039;-60
2023/03/16 07:05:29;;;;;;;7.17;3.50;;;;;;;;;;5041204;28;20119;-61
2023/03/16 07:07:55;;;;;;;7.70;4.03;;;;;;;;;;5040580;28;20144;-61
2023/03/16 07:10:21;;;;;;;5.87;3.20;;;;;;;;;;5040881;28;20048;-60
2023/03/16 07:12:47;;;;;;;7.07;3.57;;;;;;;;;;5043991;28;20045;-61
2023/03/16 07:15:13;;;;;;;7.63;3.90;;;;;;;;;;5036593;28;20446;-61
2023/03/16 07:17:39;;;;;;;6.67;3.97;;;;;;;;;;5038923;28;20044;-61
2023/03/16 07:20:09;;;;;;;6.73;3.90;;;;;;;;;;5036240;28;20041;-61
2023/03/16 07:22:35;;;;;;;7.33;4.17;;;;;;;;;;5037175;28;20356;-59
2023/03/16 07:25:01;;;;;;;7.47;3.17;;;;;;;;;;5042489;28;20114;-61
2023/03/16 07:27:28;;;;;;;7.40;3.67;;;;;;;;;;5043815;28;20136;-60
2023/03/16 07:29:54;;;;;;;7.93;3.70;;;;;;;;;;5043986;28;20052;-61
2023/03/16 07:32:21;;;;;;;7.80;3.37;;;;;;;;;;5038453;28;20049;-61
2023/03/16 07:34:47;;;;;;;8.50;4.17;;;;;;;;;;5030533;28;20053;-60
2023/03/16 07:37:14;;;;;;;7.57;4.00;;;;;;;;;;5037380;28;20044;-61
2023/03/16 07:39:40;;;;;;;8.73;3.60;;;;;;;;;;5042944;28;20053;-60
2023/03/16 07:42:07;;;;;;;6.10;3.40;;;;;;;;;;5040399;28;20041;-62
2023/03/16 07:44:32;;;;;;;5.63;3.53;;;;;;;;;;5042945;28;20099;-60
2023/03/16 07:46:59;;;;;;;10.80;3.67;;;;;;;;;;5040114;28;20041;-60
2023/03/16 07:49:25;;;;;;;6.87;3.53;;;;;;;;;;5039716;28;20045;-61
2023/03/16 07:51:51;;;;;;;7.83;3.60;;;;;;;;;;5040765;28;20048;-61
2023/03/16 07:54:17;;;;;;;8.57;3.97;;;;;;;;;;5040964;28;20491;-60
2023/03/16 07:56:43;;;;;;;9.03;4.27;;;;;;;;;;5043044;28;20422;-61
2023/03/16 07:59:09;;;;;;;7.00;3.30;;;;;;;;;;5039940;28;20045;-61
2023/03/16 08:01:35;;;;;;;7.90;4.23;;;;;;;;;;5044620;28;20531;-62
2023/03/16 08:04:02;;;;;;;8.53;3.70;;;;;;;;;;5051113;28;20044;-60
2023/03/16 08:06:28;;;;;;;8.40;3.97;;;;;;;;;;5037099;28;20049;-62
2023/03/16 08:08:54;;;;;;;6.80;4.10;;;;;;;;;;5047339;28;20055;-59
2023/03/16 08:11:23;;;;;;;9.60;4.53;;;;;;;;;;5049909;28;20513;-59
2023/03/16 08:13:53;;;;;;;7.27;4.73;;;;;;;;;;5049868;28;20493;-60
2023/03/16 08:16:22;;;;;;;8.40;5.07;;;;;;;;;;5041171;28;20112;-60
2023/03/16 08:18:50;;;;;;;9.60;5.13;;;;;;;;;;5050221;28;20649;-60
2023/03/16 08:21:17;;;;;;;7.13;4.30;;;;;;;;;;5049156;28;20582;-60
2023/03/16 08:23:47;;;;;;;9.67;4.63;;;;;;;;;;5049272;28;20048;-60
2023/03/16 08:26:14;;;;;;;9.70;5.07;;;;;;;;;;5050181;28;20095;-60
2023/03/16 08:28:40;;;;;;;8.07;5.20;;;;;;;;;;5043746;28;20060;-60
2023/03/16 08:31:07;;;;;;;8.70;5.83;;;;;;;;;;5049518;28;20078;-60
2023/03/16 08:33:34;;;;;;;14.63;5.80;;;;;;;;;;5061461;28;20041;-60
2023/03/16 08:36:00;;;;;;;13.87;5.33;;;;;;;;;;5041645;28;20106;-60
2023/03/16 08:38:27;;;;;;;12.10;6.03;;;;;;;;;;5047824;28;20037;-60
2023/03/16 08:40:53;;;;;;;8.80;5.53;;;;;;;;;;5045049;28;20156;-61
2023/03/16 08:43:19;;;;;;;11.77;5.43;;;;;;;;;;5036563;28;20037;-61
2023/03/16 08:45:45;;;;;;;11.03;5.47;;;;;;;;;;5029631;28;20515;-61
2023/03/16 08:48:13;;;;;;;8.70;5.73;;;;;;;;;;5043612;28;20041;-61
2023/03/16 08:50:40;;;;;;;13.03;6.43;;;;;;;;;;5040386;28;20499;-61
2023/03/16 08:53:06;;;;;;;8.93;5.43;;;;;;;;;;5035246;28;20041;-61
2023/03/16 08:55:32;;;;;;;11.33;5.80;;;;;;;;;;5039806;28;20041;-61
2023/03/16 08:57:58;;;;;;;10.57;6.17;;;;;;;;;;5037154;28;20049;-60
2023/03/16 09:00:25;;;;;;;14.87;7.17;;;;;;;;;;5032700;28;20041;-62
2023/03/16 09:02:51;;;;;;;11.53;6.03;;;;;;;;;;5036980;28;20525;-62
2023/03/16 09:05:17;;;;;;;12.30;6.00;;;;;;;;;;5040329;28;20051;-62
2023/03/16 09:07:43;;;;;;;14.13;6.90;;;;;;;;;;5042328;28;20049;-62
2023/03/16 09:10:14;;;;;;;11.43;6.47;;;;;;;;;;5032530;28;20045;-62
2023/03/16 09:12:41;;;;;;;13.63;6.23;;;;;;;;;;5056961;28;20132;-63
2023/03/16 09:15:09;;;;;;;11.97;5.70;;;;;;;;;;5038780;28;20041;-62
2023/03/16 09:17:35;;;;;;;10.07;5.73;;;;;;;;;;5037072;28;20083;-63
2023/03/16 09:20:01;;;;;;;15.00;7.53;;;;;;;;;;5036630;28;20137;-63
2023/03/16 09:22:28;;;;;;;10.53;6.60;;;;;;;;;;5038008;28;20517;-63
2023/03/16 09:24:54;;;;;;;13.03;7.17;;;;;;;;;;5039272;28;20056;-63
2023/03/16 09:27:21;;;;;;;14.03;6.93;;;;;;;;;;5041682;28;20143;-64
2023/03/16 09:29:48;;;;;;;14.17;7.00;;;;;;;;;;5049488;28;20059;-64
2023/03/16 09:32:14;;;;;;;15.27;7.73;;;;;;;;;;5048260;28;20053;-64
2023/03/16 09:34:40;;;;;;;14.33;7.73;;;;;;;;;;5036658;28;20087;-64
2023/03/16 09:37:06;;;;;;;11.87;6.63;;;;;;;;;;5049703;28;20049;-64
2023/03/16 09:39:32;;;;;;;14.87;7.87;;;;;;;;;;5047950;28;20037;-65
2023/03/16 09:42:01;;;;;;;18.83;8.17;;;;;;;;;;5039659;28;20436;-64
2023/03/16 09:44:42;;;;;;;14.40;7.73;;;;;;;;;;5027811;28;20127;-64
2023/03/16 09:47:10;;;;;;;12.67;7.47;;;;;;;;;;5027958;28;20076;-64
2023/03/16 09:49:40;;;;;;;14.77;7.90;;;;;;;;;;5027899;28;20082;-64
2023/03/16 09:52:09;;;;;;;11.70;6.93;;;;;;;;;;5027942;28;20052;-64
2023/03/16 09:55:02;;;;;;;13.33;7.33;;;;;;;;;;5027658;28;20095;-64
2023/03/16 09:57:29;;;;;;;15.33;8.33;;;;;;;;;;5027401;28;20119;-64
2023/03/16 10:00:02;;;;;;;13.90;7.37;;;;;;;;;;5026897;28;20045;-64
2023/03/16 10:02:28;;;;;;;14.87;7.83;;;;;;;;;;5026390;28;20837;-64
2023/03/16 10:05:06;;;;;;;18.03;9.50;;;;;;;;;;5027047;28;20053;-64
2023/03/16 10:07:51;;;;;;;15.47;9.00;;;;;;;;;;5027095;28;20041;-64
2023/03/16 10:10:32;;;;;;;15.00;7.23;;;;;;;;;;5027189;28;20057;-64
2023/03/16 10:12:59;;;;;;;18.53;7.80;;;;;;;;;;5027603;28;20515;-64
2023/03/16 10:15:27;;;;;;;15.67;7.67;;;;;;;;;;5028354;28;20056;-64
2023/03/16 10:17:53;;;;;;;16.40;7.83;;;;;;;;;;5028564;28;20164;-62
2023/03/16 10:20:21;;;;;;;19.70;8.27;;;;;;;;;;5028652;28;20052;-62
2023/03/16 10:22:47;;;;;;;16.57;6.73;;;;;;;;;;5028846;28;20056;-62
2023/03/16 10:25:19;;;;;;;13.40;7.47;;;;;;;;;;5028929;28;20041;-62
2023/03/16 10:27:46;;;;;;;12.77;7.50;;;;;;;;;;5028775;28;20054;-62
2023/03/16 10:30:17;;;;;;;19.07;8.37;;;;;;;;;;5028695;28;20057;-61
2023/03/16 10:32:43;;;;;;;12.17;7.30;;;;;;;;;;5044010;28;20534;-62
2023/03/16 10:35:28;;;;;;;12.17;6.47;;;;;;;;;;5028731;28;20058;-62
2023/03/16 10:37:56;;;;;;;13.00;7.10;;;;;;;;;;5028877;28;20503;-62
2023/03/16 10:40:22;;;;;;;14.63;6.67;;;;;;;;;;5031540;28;20059;-62
2023/03/16 10:42:48;;;;;;;15.13;7.00;;;;;;;;;;5032798;28;20047;-62
2023/03/16 10:45:27;;;;;;;14.03;7.07;;;;;;;;;;5032623;28;20041;-62
2023/03/16 10:47:53;;;;;;;14.43;7.60;;;;;;;;;;5032493;28;20586;-62
2023/03/16 10:50:24;;;;;;;11.93;6.87;;;;;;;;;;5031133;28;20045;-62
2023/03/16 10:52:52;;;;;;;13.17;6.67;;;;;;;;;;5032516;28;20050;-62
2023/03/16 10:55:31;;;;;;;11.40;6.13;;;;;;;;;;5047686;28;20496;-62
2023/03/16 10:57:57;;;;;;;11.60;6.60;;;;;;;;;;5032562;28;20053;-62
2023/03/16 11:00:28;;;;;;;12.63;6.10;;;;;;;;;;5032355;28;20045;-62
2023/03/16 11:02:55;;;;;;;9.13;5.30;;;;;;;;;;5047890;28;20095;-62
2023/03/16 11:05:32;;;;;;;11.53;6.10;;;;;;;;;;5032098;28;20060;-62
2023/03/16 11:08:04;;;;;;;10.83;5.83;;;;;;;;;;5032484;28;20479;-62
2023/03/16 11:10:32;;;;;;;11.30;6.17;;;;;;;;;;5032439;28;20053;-62
2023/03/16 11:13:02;;;;;;;12.57;5.70;;;;;;;;;;5051931;28;20410;-62
2023/03/16 11:15:35;;;;;;;11.57;6.17;;;;;;;;;;5052194;28;20466;-62
2023/03/16 11:18:02;;;;;;;13.18;5.57;;;;;;;;;;5051753;28;20098;-62
2023/03/16 11:20:31;;;;;;;9.40;4.87;;;;;;;;;;5051902;28;20049;-62
2023/03/16 11:22:58;;;;;;;11.97;5.20;;;;;;;;;;5051930;28;20055;-62
2023/03/16 11:25:27;;;;;;;8.47;4.73;;;;;;;;;;5050632;28;20098;-62
2023/03/16 11:27:59;;;;;;;6.27;4.13;;;;;;;;;;5051371;28;20060;-62
2023/03/16 11:30:29;;;;;;;7.65;3.92;;;;;;;;;;5051892;28;20060;-63
2023/03/16 11:32:58;;;;;;;8.87;4.03;;;;;;;;;;5052055;28;20060;-62
2023/03/16 11:35:43;;;;;;;7.63;4.13;;;;;;;;;;5051952;28;20099;-62
2023/03/16 11:38:28;;;;;;;11.57;4.77;;;;;;;;;;5051373;28;20528;-62
2023/03/16 11:41:02;;;;;;;7.73;4.73;;;;;;;;;;5051012;28;20056;-62
2023/03/16 11:43:47;;;;;;;7.70;4.10;;;;;;;;;;5051042;28;20099;-62
2023/03/16 11:46:15;;;;;;;6.83;3.43;;;;;;;;;;5051336;28;20132;-62
2023/03/16 11:49:00;;;;;;;6.73;3.70;;;;;;;;;;5051444;28;20592;-62
2023/03/16 11:51:27;;;;;;;8.40;4.40;;;;;;;;;;5049624;28;20503;-61
2023/03/16 11:54:03;;;;;;;7.50;3.93;;;;;;;;;;5051340;28;20463;-61
2023/03/16 11:56:29;;;;;;;6.73;4.03;;;;;;;;;;5051354;28;20053;-62
2023/03/16 11:59:01;;;;;;;11.07;4.47;;;;;;;;;;5050572;28;20411;-62
2023/03/16 12:01:46;;;;;;;8.93;3.53;;;;;;;;;;5050692;28;20059;-61
2023/03/16 12:04:12;;;;;;;7.77;3.83;;;;;;;;;;5050755;28;20059;-62
2023/03/16 12:06:52;;;;;;;6.47;3.57;;;;;;;;;;5048359;28;20046;-61
2023/03/16 12:09:29;;;;;;;6.80;3.67;;;;;;;;;;5050912;28;20048;-61
2023/03/16 12:12:13;;;;;;;6.20;3.70;;;;;;;;;;5050518;28;20128;-61
2023/03/16 12:14:54;;;;;;;6.57;3.23;;;;;;;;;;5050904;28;20084;-61
2023/03/16 12:17:23;;;;;;;5.43;3.07;;;;;;;;;;5050741;28;20051;-61
2023/03/16 12:19:53;;;;;;;7.63;3.60;;;;;;;;;;5050621;28;20048;-62
2023/03/16 12:22:21;;;;;;;7.40;3.43;;;;;;;;;;5048248;28;20042;-61
2023/03/16 12:24:48;;;;;;;5.00;3.17;;;;;;;;;;5049765;28;20049;-62
2023/03/16 12:27:16;;;;;;;8.40;3.40;;;;;;;;;;5049845;28;20068;-61
2023/03/16 12:29:48;;;;;;;6.83;2.70;;;;;;;;;;5050676;28;20044;-61
2023/03/16 12:32:21;;;;;;;8.40;3.00;;;;;;;;;;5050336;28;20048;-61
2023/03/16 12:34:56;;;;;;;7.65;3.13;;;;;;;;;;5050056;28;20063;-61
2023/03/16 12:37:40;;;;;;;4.87;3.10;;;;;;;;;;5049380;28;20124;-60
2023/03/16 12:40:07;;;;;;;;;;;;;;;;;;5049599;28;20041;-61
2023/03/16 12:42:37;;;;;;;8.80;3.13;;;;;;;;;;5041424;28;20342;-60
2023/03/16 12:45:05;;;;;;;8.03;3.63;;;;;;;;;;5043365;28;20085;-61
2023/03/16 12:47:36;;;;;;;6.27;3.13;;;;;;;;;;5049639;28;20503;-61
2023/03/16 12:50:14;;;;;;;5.47;3.13;;;;;;;;;;5037367;28;20057;-61
2023/03/16 12:52:48;;;;;;;8.30;3.60;;;;;;;;;;5040188;28;20095;-60
2023/03/16 12:55:14;;;;;;;6.43;3.37;;;;;;;;;;5040098;28;20052;-61
2023/03/16 12:57:41;;;;;;;6.23;3.03;;;;;;;;;;5039083;28;20049;-61
2023/03/16 13:00:08;;;;;;;11.57;3.43;;;;;;;;;;5037935;28;20042;-60
2023/03/16 13:02:35;;;;;;;5.37;2.87;;;;;;;;;;5038908;28;20057;-60
2023/03/16 13:05:01;;;;;;;7.23;3.63;;;;;;;;;;5042528;28;20072;-61
2023/03/16 13:07:29;;;;;;;5.80;3.37;;;;;;;;;;5049503;28;20049;-60
2023/03/16 13:09:58;;;;;;;5.73;3.07;;;;;;;;;;5044458;28;20081;-60
2023/03/16 13:12:26;;;;;;;8.70;3.33;;;;;;;;;;5040138;28;20041;-60
2023/03/16 13:14:55;;;;;;;4.60;2.90;;;;;;;;;;5047368;28;20107;-60
2023/03/16 13:17:32;;;;;;;6.73;2.90;;;;;;;;;;5039085;28;20044;-60
2023/03/16 13:20:24;;;;;;;6.70;2.90;;;;;;;;;;5038643;28;20037;-60
2023/03/16 13:22:52;;;;;;;5.60;2.77;;;;;;;;;;5037168;28;20140;-60
2023/03/16 13:25:38;;;;;;;8.60;2.93;;;;;;;;;;5039693;28;20103;-60
2023/03/16 13:28:06;;;;;;;5.90;2.30;;;;;;;;;;5035411;28;20042;-60
2023/03/16 13:30:34;;;;;;;7.57;2.97;;;;;;;;;;5039373;28;20565;-60
2023/03/16 13:33:05;;;;;;;5.27;2.70;;;;;;;;;;5041978;28;20518;-60
2023/03/16 13:35:32;;;;;;;5.80;2.63;;;;;;;;;;5041200;28;20076;-60
2023/03/16 13:38:04;;;;;;;4.33;2.53;;;;;;;;;;5047329;28;20041;-60
2023/03/16 13:40:31;;;;;;;7.10;2.67;;;;;;;;;;5031486;28;20084;-60
2023/03/16 13:42:57;;;;;;;6.07;3.33;;;;;;;;;;5037977;28;20049;-60
2023/03/16 13:45:34;;;;;;;5.87;2.67;;;;;;;;;;5045572;28;21005;-60
2023/03/16 13:48:00;;;;;;;7.70;2.60;;;;;;;;;;5036696;28;20435;-60
2023/03/16 13:50:27;;;;;;;5.70;2.90;;;;;;;;;;5045333;28;20072;-60
2023/03/16 13:52:57;;;;;;;5.73;2.60;;;;;;;;;;5048755;28;20045;-60
2023/03/16 13:55:27;;;;;;;5.37;2.30;;;;;;;;;;5048015;28;20175;-60
2023/03/16 13:57:53;;;;;;;4.67;2.50;;;;;;;;;;5046888;28;20650;-60
2023/03/16 14:00:21;;;;;;;4.93;2.70;;;;;;;;;;5042166;28;20048;-60
2023/03/16 14:02:50;;;;;;;8.57;2.83;;;;;;;;;;5044851;28;20360;-60
2023/03/16 14:05:18;;;;;;;4.23;2.57;;;;;;;;;;5038728;28;20049;-60
2023/03/16 14:07:49;;;;;;;5.97;3.20;;;;;;;;;;5040979;28;20053;-60
2023/03/16 14:10:16;;;;;;;4.37;2.57;;;;;;;;;;5041564;28;20053;-60
2023/03/16 14:12:56;;;;;;;5.87;2.97;;;;;;;;;;5040489;28;20049;-59
2023/03/16 14:15:24;;;;;;;6.33;3.03;;;;;;;;;;5037085;28;20123;-60
2023/03/16 14:17:51;;;;;;;5.93;3.17;;;;;;;;;;5039022;28;20476;-60
2023/03/16 14:20:22;;;;;;;8.60;2.93;;;;;;;;;;5039053;28;20128;-60
2023/03/16 14:22:51;;;;;;;6.47;2.90;;;;;;;;;;5034409;28;20731;-60
2023/03/16 14:25:21;;;;;;;4.87;3.10;;;;;;;;;;5040093;28;20645;-59
2023/03/16 14:27:47;;;;;;;4.70;2.60;;;;;;;;;;5041347;28;21097;-60
2023/03/16 14:30:14;;;;;;;7.67;2.60;;;;;;;;;;5035994;28;20053;-60
2023/03/16 14:32:40;;;;;;;7.27;2.93;;;;;;;;;;5032233;28;20147;-60
2023/03/16 14:35:14;;;;;;;6.00;2.87;;;;;;;;;;5039881;28;20546;-60
2023/03/16 14:37:40;;;;;;;5.07;2.73;;;;;;;;;;5032954;28;20045;-61
2023/03/16 14:40:27;;;;;;;5.30;2.77;;;;;;;;;;5036915;28;20033;-60
2023/03/16 14:42:55;;;;;;;5.20;3.00;;;;;;;;;;5044025;28;20411;-60
2023/03/16 14:45:22;;;;;;;4.37;2.70;;;;;;;;;;5046407;28;20041;-60